Time,TemperatureF,DewpointF,PressureIn,WindDirection,WindDirectionDegrees,WindSpeedMPH,WindSpeedGustMPH,Humidity,HourlyPrecipIn,Conditions,Clouds,dailyrainin,SoftwareType,DateUTC
2013-06-30 00:00:00,55.0,54.0,-100.00,North,0,0.0,1.0,97,0.00,,,-99.99,,2013-06-30 07:00:00,
2013-06-30 01:00:00,55.0,54.0,-100.00,North,0,0.0,5.0,96,0.00,,,-99.99,,2013-06-30 08:00:00,
2013-06-30 02:00:00,55.0,53.0,-100.00,North,0,0.0,7.0,94,0.00,,,-99.99,,2013-06-30 09:00:00,
2013-06-30 03:00:00,56.0,52.0,-100.00,North,0,0.0,7.0,87,0.00,,,-99.99,,2013-06-30 10:00:00,
2013-06-30 04:00:00,55.0,52.0,-100.00,North,0,0.0,2.0,88,0.00,,,-99.99,,2013-06-30 11:00:00,
2013-06-30 05:00:00,57.0,53.0,-100.00,North,0,0.0,3.0,85,0.00,,,-99.99,,2013-06-30 12:00:00,
2013-06-30 06:00:00,58.0,48.0,-100.00,North,0,0.0,3.0,70,0.00,,,-99.99,,2013-06-30 13:00:00,
2013-06-30 07:00:00,59.0,46.0,-100.00,SSE,155,1.0,8.0,63,0.00,,,-99.99,,2013-06-30 14:00:00,
2013-06-30 07:52:00,59.0,46.0,-100.00,SSE,155,1.0,8.0,63,0.00,,,-99.99,,2013-06-30 14:52:00,
2013-06-30 08:00:00,63.0,47.0,-100.00,North,0,0.0,2.0,56,0.00,,,-99.99,,2013-06-30 15:00:00,
2013-06-30 08:53:00,63.0,47.0,-100.00,North,0,0.0,2.0,56,0.00,,,-99.99,,2013-06-30 15:53:00,
2013-06-30 09:00:00,65.0,50.0,-100.00,North,0,0.0,1.0,58,0.00,,,-99.99,,2013-06-30 16:00:00,
2013-06-30 10:00:00,69.0,48.0,-100.00,North,0,0.0,5.0,47,0.00,,,-99.99,,2013-06-30 17:00:00,
2013-06-30 10:52:00,69.0,48.0,-100.00,North,0,0.0,5.0,47,0.00,,,-99.99,,2013-06-30 17:52:00,
2013-06-30 11:00:00,72.0,48.0,-100.00,North,-999,0.0,0.0,43,0.00,,,-99.99,,2013-06-30 18:00:00,
2013-06-30 11:53:00,72.0,48.0,-100.00,North,-999,0.0,0.0,43,0.00,,,-99.99,,2013-06-30 18:53:00,
2013-06-30 12:00:00,74.0,47.0,-100.00,North,0,0.0,1.0,39,0.00,,,-99.99,,2013-06-30 19:00:00,
2013-06-30 12:53:00,74.0,47.0,-100.00,North,0,0.0,1.0,39,0.00,,,-99.99,,2013-06-30 19:53:00,
2013-06-30 13:00:00,72.0,54.0,-100.00,North,0,0.0,2.0,54,0.00,,,-99.99,,2013-06-30 20:00:00,
2013-06-30 14:00:00,73.0,54.0,-100.00,North,0,0.0,2.0,51,0.00,,,-99.99,,2013-06-30 21:00:00,
2013-06-30 14:53:00,73.0,54.0,-100.00,North,0,0.0,2.0,51,0.00,,,-99.99,,2013-06-30 21:53:00,
2013-06-30 15:00:00,74.0,53.0,-100.00,North,0,0.0,2.0,48,0.00,,,-99.99,,2013-06-30 22:00:00,
2013-06-30 15:53:00,74.0,53.0,-100.00,North,0,0.0,2.0,48,0.00,,,-99.99,,2013-06-30 22:53:00,
2013-06-30 16:00:00,72.0,54.0,-100.00,North,0,0.0,2.0,54,0.00,,,-99.99,,2013-06-30 23:00:00,
2013-06-30 17:00:00,68.0,54.0,-100.00,North,0,0.0,3.0,60,0.00,,,-99.99,,2013-07-01 00:00:00,
2013-06-30 17:52:00,68.0,54.0,-100.00,North,0,0.0,3.0,60,0.00,,,-99.99,,2013-07-01 00:52:00,
2013-06-30 18:00:00,70.0,54.0,-100.00,North,0,0.0,3.0,57,0.00,,,-99.99,,2013-07-01 01:00:00,
2013-06-30 18:52:00,70.0,54.0,-100.00,North,0,0.0,3.0,57,0.00,,,-99.99,,2013-07-01 01:52:00,
2013-06-30 19:00:00,68.0,53.0,-100.00,North,0,0.0,2.0,59,0.00,,,-99.99,,2013-07-01 02:00:00,
2013-06-30 19:54:00,68.0,53.0,-100.00,North,0,0.0,2.0,59,0.00,,,-99.99,,2013-07-01 02:54:00,
2013-06-30 20:00:00,66.0,53.0,-100.00,North,0,0.0,5.0,62,0.00,,,-99.99,,2013-07-01 03:00:00,
2013-06-30 21:00:00,64.0,51.0,-100.00,East,93,1.0,6.0,62,0.00,,,-99.99,,2013-07-01 04:00:00,
2013-06-30 21:53:00,64.0,51.0,-100.00,East,93,1.0,6.0,62,0.00,,,-99.99,,2013-07-01 04:53:00,
2013-06-30 22:00:00,63.0,48.0,-100.00,East,100,1.0,8.0,58,0.00,,,-99.99,,2013-07-01 05:00:00,
2013-06-30 23:00:00,63.0,48.0,-100.00,ESE,102,2.0,7.0,58,0.00,,,-99.99,,2013-07-01 06:00:00,